createdAt,value
2022-08-26T00:02:13.144Z,21.60
2022-08-26T00:04:45.067Z,20.55
2022-08-26T00:07:14.953Z,20.60
2022-08-26T00:09:47.491Z,19.05
2022-08-26T00:12:16.930Z,20.02
2022-08-26T00:14:47.202Z,21.52
2022-08-26T00:17:16.599Z,20.25
2022-08-26T00:19:45.882Z,18.83
2022-08-26T00:22:20.280Z,17.63
2022-08-26T00:24:51.113Z,17.60
2022-08-26T00:27:20.473Z,19.17
2022-08-26T00:29:50.251Z,19.25
2022-08-26T00:32:20.199Z,17.92
2022-08-26T00:34:49.512Z,17.20
2022-08-26T00:37:18.967Z,17.08
2022-08-26T00:39:48.723Z,15.88
2022-08-26T00:42:18.562Z,16.27
2022-08-26T00:44:47.894Z,17.25
2022-08-26T00:50:02.751Z,15.20
2022-08-26T00:52:32.755Z,14.38
2022-08-26T00:55:34.493Z,14.38
2022-08-26T00:58:09.719Z,12.95
2022-08-26T01:00:39.259Z,13.57
2022-08-26T01:03:12.683Z,14.27
2022-08-26T01:05:43.943Z,11.75
2022-08-26T01:08:13.433Z,12.00
2022-08-26T01:10:43.405Z,12.20
2022-08-26T01:13:14.343Z,11.30
2022-08-26T01:15:50.494Z,11.88
2022-08-26T01:18:20.817Z,10.80
2022-08-26T01:20:58.631Z,10.75
2022-08-26T01:23:33.671Z,11.93
2022-08-26T01:26:15.343Z,10.55
2022-08-26T01:28:51.810Z,9.93
2022-08-26T01:34:04.420Z,9.02
2022-08-26T01:36:34.155Z,8.85
2022-08-26T01:39:05.828Z,9.23
2022-08-26T01:41:38.725Z,8.07
2022-08-26T01:44:10.812Z,8.32
2022-08-26T01:49:13.308Z,7.20
2022-08-26T01:51:44.557Z,7.00
2022-08-26T01:54:15.338Z,6.70
2022-08-26T01:56:44.803Z,7.15
2022-08-26T01:59:17.937Z,6.53
2022-08-26T02:01:50.897Z,5.45
2022-08-26T02:04:31.055Z,6.25
2022-08-26T02:07:00.996Z,6.70
2022-08-26T02:09:31.044Z,5.47
2022-08-26T02:12:03.628Z,4.88
2022-08-26T02:14:43.831Z,5.07
2022-08-26T02:17:14.114Z,5.35
2022-08-26T02:19:48.028Z,5.38
2022-08-26T02:22:21.769Z,4.43
2022-08-26T02:25:02.375Z,4.70
2022-08-26T02:27:35.124Z,4.40
2022-08-26T02:30:10.995Z,4.68
2022-08-26T02:32:41.260Z,4.28
2022-08-26T02:35:12.960Z,5.15
2022-08-26T02:37:42.785Z,3.95
2022-08-26T02:40:15.225Z,4.20
2022-08-26T02:42:45.215Z,4.43
2022-08-26T02:45:23.040Z,4.28
2022-08-26T02:47:54.239Z,3.80
2022-08-26T02:50:27.041Z,3.70
2022-08-26T02:52:56.491Z,3.95
2022-08-26T02:55:25.926Z,3.92
2022-08-26T02:57:55.892Z,3.53
2022-08-26T03:00:25.472Z,3.92
2022-08-26T03:02:55.023Z,3.20
2022-08-26T03:05:24.923Z,3.55
2022-08-26T03:07:55.188Z,3.88
2022-08-26T03:10:24.900Z,3.53
2022-08-26T03:12:55.584Z,3.35
2022-08-26T03:15:25.711Z,3.60
2022-08-26T03:17:55.054Z,4.47
2022-08-26T03:20:26.790Z,2.90
2022-08-26T03:22:56.967Z,3.53
2022-08-26T03:25:27.305Z,3.38
2022-08-26T03:27:56.627Z,3.40
2022-08-26T03:30:44.216Z,3.47
2022-08-26T03:33:16.329Z,4.30
2022-08-26T03:35:47.933Z,4.33
2022-08-26T03:38:21.409Z,4.68
2022-08-26T03:40:51.107Z,3.85
2022-08-26T03:43:24.715Z,3.97
2022-08-26T03:45:54.786Z,4.00
2022-08-26T03:48:24.096Z,3.92
2022-08-26T03:50:54.177Z,3.78
2022-08-26T03:53:23.863Z,4.00
2022-08-26T03:55:53.264Z,3.40
2022-08-26T03:58:24.298Z,3.42
2022-08-26T04:00:55.633Z,3.40
2022-08-26T04:03:38.423Z,3.75
2022-08-26T04:06:08.154Z,3.10
2022-08-26T04:08:39.548Z,3.92
2022-08-26T04:11:10.604Z,3.40
2022-08-26T04:13:40.071Z,3.13
2022-08-26T04:16:12.514Z,3.00
2022-08-26T04:18:46.445Z,3.22
2022-08-26T04:21:16.800Z,3.15
2022-08-26T04:23:47.496Z,3.40
2022-08-26T04:26:17.535Z,2.70
2022-08-26T04:28:46.892Z,4.05
2022-08-26T04:31:19.642Z,2.88
2022-08-26T04:33:51.428Z,2.58
2022-08-26T04:36:21.315Z,2.40
2022-08-26T04:38:50.846Z,3.42
2022-08-26T04:41:22.270Z,2.83
2022-08-26T04:43:51.643Z,2.60
2022-08-26T04:46:25.595Z,2.35
2022-08-26T04:48:56.877Z,3.17
2022-08-26T04:53:59.179Z,2.28
2022-08-26T04:56:35.022Z,1.77
2022-08-26T04:59:06.232Z,2.35
2022-08-26T05:01:39.625Z,2.25
2022-08-26T05:04:09.202Z,1.70
2022-08-26T05:06:38.623Z,1.90
2022-08-26T05:09:09.233Z,1.70
2022-08-26T05:11:38.856Z,1.52
2022-08-26T05:14:08.723Z,1.85
2022-08-26T05:16:40.343Z,1.83
2022-08-26T05:19:13.943Z,1.67
2022-08-26T05:21:48.446Z,1.70
2022-08-26T05:24:18.448Z,1.40
2022-08-26T05:26:48.387Z,2.38
2022-08-26T05:29:18.623Z,1.63
2022-08-26T05:31:49.332Z,2.83
2022-08-26T05:34:20.810Z,1.73
2022-08-26T05:36:50.828Z,1.23
2022-08-26T05:39:21.472Z,2.05
2022-08-26T05:41:50.813Z,1.30
2022-08-26T05:44:22.437Z,1.52
2022-08-26T05:46:51.935Z,1.83
2022-08-26T05:49:22.482Z,2.10
2022-08-26T05:51:55.649Z,2.08
2022-08-26T05:54:25.091Z,2.50
2022-08-26T05:56:54.782Z,1.75
2022-08-26T05:59:24.863Z,2.63
2022-08-26T06:01:55.067Z,2.03
2022-08-26T06:04:29.209Z,1.70
2022-08-26T06:06:58.894Z,2.13
2022-08-26T06:09:28.422Z,2.03
2022-08-26T06:12:01.881Z,2.35
2022-08-26T06:14:31.542Z,1.50
2022-08-26T06:17:00.957Z,1.60
2022-08-26T06:19:32.718Z,1.98
2022-08-26T06:22:23.452Z,2.47
2022-08-26T06:25:05.956Z,1.65
2022-08-26T06:27:37.437Z,1.83
2022-08-26T06:30:12.394Z,1.92
2022-08-26T06:32:41.814Z,1.80
2022-08-26T06:35:13.294Z,1.65
2022-08-26T06:37:43.996Z,1.58
2022-08-26T06:40:13.961Z,1.40
2022-08-26T06:42:43.551Z,1.67
2022-08-26T06:45:13.904Z,1.65
2022-08-26T06:47:43.263Z,1.60
2022-08-26T06:50:12.752Z,1.48
2022-08-26T06:52:44.564Z,1.40
2022-08-26T06:55:13.940Z,1.75
2022-08-26T06:57:43.278Z,1.48
2022-08-26T07:00:13.495Z,1.73
2022-08-26T07:02:46.222Z,0.98
2022-08-26T07:05:16.685Z,1.60
2022-08-26T07:07:46.006Z,1.77
2022-08-26T07:10:15.670Z,1.95
2022-08-26T07:12:47.110Z,1.77
2022-08-26T07:15:16.694Z,1.20
2022-08-26T07:17:46.205Z,2.30
2022-08-26T07:20:15.631Z,1.52
2022-08-26T07:22:46.000Z,1.73
2022-08-26T07:25:15.369Z,1.58
2022-08-26T07:27:45.179Z,1.85
2022-08-26T07:30:15.124Z,2.13
2022-08-26T07:32:45.440Z,1.70
2022-08-26T07:35:14.944Z,2.33
2022-08-26T07:37:45.503Z,1.60
2022-08-26T07:40:14.932Z,1.20
2022-08-26T07:42:45.804Z,1.42
2022-08-26T07:45:15.192Z,1.50
2022-08-26T07:47:44.868Z,1.38
2022-08-26T07:50:14.443Z,1.48
2022-08-26T07:52:44.795Z,1.55
2022-08-26T07:55:14.862Z,1.48
2022-08-26T07:57:44.946Z,2.10
2022-08-26T08:00:18.659Z,1.92
2022-08-26T08:02:49.353Z,1.48
2022-08-26T08:05:21.583Z,2.10
2022-08-26T08:07:53.493Z,1.98
2022-08-26T08:10:30.330Z,2.00
2022-08-26T08:13:01.514Z,1.80
2022-08-26T08:15:33.586Z,1.67
2022-08-26T08:18:06.544Z,2.10
2022-08-26T08:21:04.595Z,1.55
2022-08-26T08:23:35.651Z,1.73
2022-08-26T08:26:08.330Z,1.88
2022-08-26T08:28:38.448Z,1.90
2022-08-26T08:31:08.702Z,1.67
2022-08-26T08:33:38.184Z,1.67
2022-08-26T08:36:09.290Z,1.70
2022-08-26T08:38:40.216Z,1.60
2022-08-26T08:41:48.046Z,1.40
2022-08-26T08:47:22.285Z,1.45
2022-08-26T08:49:51.700Z,1.52
2022-08-26T08:52:40.609Z,1.75
2022-08-26T08:55:13.670Z,1.30
2022-08-26T08:58:02.265Z,2.30
2022-08-26T09:00:42.260Z,1.40
2022-08-26T09:03:43.101Z,1.63
2022-08-26T09:06:17.444Z,1.65
2022-08-26T09:08:50.770Z,1.50
2022-08-26T09:11:21.432Z,1.95
2022-08-26T09:17:03.231Z,1.27
2022-08-26T09:19:50.486Z,1.92
2022-08-26T09:22:38.623Z,2.08
2022-08-26T09:25:12.189Z,1.48
2022-08-26T09:27:47.480Z,2.13
2022-08-26T09:30:36.573Z,2.15
2022-08-26T09:33:10.214Z,1.33
2022-08-26T09:35:43.922Z,1.70
2022-08-26T09:38:29.027Z,1.63
2022-08-26T09:41:00.672Z,1.48
2022-08-26T09:43:31.153Z,1.50
2022-08-26T09:46:22.592Z,1.67
2022-08-26T09:48:53.214Z,2.00
2022-08-26T09:53:57.835Z,1.52
2022-08-26T09:56:40.055Z,1.23
2022-08-26T10:01:46.324Z,2.10
2022-08-26T10:04:30.651Z,1.80
2022-08-26T10:07:07.603Z,1.52
2022-08-26T10:09:44.566Z,2.75
2022-08-26T10:12:19.317Z,1.92
2022-08-26T10:14:53.263Z,1.70
2022-08-26T10:17:34.392Z,1.73
2022-08-26T10:20:22.467Z,2.13
2022-08-26T10:23:02.475Z,1.65
2022-08-26T10:25:37.533Z,1.55
2022-08-26T10:28:52.233Z,1.42
2022-08-26T10:31:28.356Z,1.45
2022-08-26T10:34:00.782Z,1.30
2022-08-26T10:37:13.937Z,1.50
2022-08-26T10:39:47.942Z,1.77
2022-08-26T10:42:48.159Z,1.98
2022-08-26T10:45:25.408Z,1.92
2022-08-26T10:47:58.172Z,2.00
2022-08-26T10:50:33.456Z,2.42
2022-08-26T10:53:19.296Z,1.48
2022-08-26T10:56:18.529Z,1.70
2022-08-26T10:58:59.558Z,1.52
2022-08-26T11:01:54.671Z,1.65
2022-08-26T11:04:48.325Z,1.77
2022-08-26T11:07:39.188Z,2.53
2022-08-26T11:10:36.275Z,1.58
2022-08-26T11:13:07.898Z,1.30
2022-08-26T11:18:35.318Z,1.80
2022-08-26T11:21:04.961Z,2.47
2022-08-26T11:23:50.558Z,1.42
2022-08-26T11:26:35.831Z,1.40
2022-08-26T11:29:13.864Z,1.90
2022-08-26T11:31:43.306Z,2.03
2022-08-26T11:34:16.920Z,1.40
2022-08-26T11:36:49.356Z,1.90
2022-08-26T11:39:31.773Z,1.42
2022-08-26T11:42:41.023Z,1.45
2022-08-26T11:45:28.531Z,1.60
2022-08-26T11:47:58.929Z,1.60
2022-08-26T11:50:30.979Z,1.83
2022-08-26T11:53:07.577Z,1.90
2022-08-26T11:55:45.058Z,1.73
2022-08-26T11:58:18.430Z,1.50
2022-08-26T12:01:11.533Z,1.60
2022-08-26T12:03:51.143Z,1.70
2022-08-26T12:06:38.870Z,1.90
2022-08-26T12:09:23.751Z,1.27
2022-08-26T12:11:55.621Z,1.67
2022-08-26T12:14:29.265Z,1.48
2022-08-26T12:17:12.534Z,1.58
2022-08-26T12:19:42.539Z,1.23
2022-08-26T12:22:31.290Z,1.58
2022-08-26T12:25:04.536Z,1.27
2022-08-26T12:27:44.090Z,1.67
2022-08-26T12:30:22.802Z,1.50
2022-08-26T12:33:22.089Z,1.48
2022-08-26T12:35:56.388Z,1.52
2022-08-26T12:38:28.301Z,2.03
2022-08-26T12:40:58.443Z,1.63
2022-08-26T12:43:47.380Z,1.05
2022-08-26T12:46:32.507Z,1.40
2022-08-26T12:49:03.435Z,1.80
2022-08-26T12:51:41.962Z,1.17
2022-08-26T12:54:18.953Z,1.08
2022-08-26T12:56:48.393Z,1.85
2022-08-26T12:59:26.773Z,2.22
2022-08-26T13:01:57.037Z,1.20
2022-08-26T13:04:46.216Z,1.60
2022-08-26T13:07:21.464Z,1.77
2022-08-26T13:09:53.140Z,1.30
2022-08-26T13:12:37.403Z,1.40
2022-08-26T13:15:08.179Z,1.60
2022-08-26T13:17:37.800Z,1.48
2022-08-26T13:20:07.690Z,1.27
2022-08-26T13:22:37.610Z,1.25
2022-08-26T13:25:07.460Z,1.13
2022-08-26T13:27:37.017Z,1.20
2022-08-26T13:30:08.537Z,1.33
2022-08-26T13:32:38.642Z,1.42
2022-08-26T13:35:13.881Z,1.70
2022-08-26T13:37:43.254Z,1.15
2022-08-26T13:40:13.354Z,1.40
2022-08-26T13:42:49.490Z,1.08
2022-08-26T13:45:19.652Z,1.27
2022-08-26T13:47:49.155Z,1.23
2022-08-26T13:50:18.806Z,1.35
2022-08-26T13:52:48.255Z,1.02
2022-08-26T13:55:17.703Z,1.35
2022-08-26T13:57:47.117Z,1.15
2022-08-26T14:00:17.276Z,1.85
2022-08-26T14:02:46.601Z,1.05
2022-08-26T14:05:16.250Z,1.30
2022-08-26T14:07:46.022Z,1.23
2022-08-26T14:10:15.458Z,1.08
2022-08-26T14:12:45.756Z,1.33
2022-08-26T14:15:16.369Z,1.30
2022-08-26T14:17:46.687Z,1.00
2022-08-26T14:20:21.246Z,0.90
2022-08-26T14:23:12.725Z,0.85
2022-08-26T14:25:43.343Z,0.98
2022-08-26T14:28:12.740Z,0.88
2022-08-26T14:30:44.879Z,0.88
2022-08-26T14:35:48.803Z,1.08
2022-08-26T14:38:19.223Z,0.60
2022-08-26T14:40:48.691Z,0.80
2022-08-26T14:43:18.521Z,1.10
2022-08-26T14:45:47.893Z,1.02
2022-08-26T14:48:17.326Z,1.20
2022-08-26T14:50:47.004Z,1.67
2022-08-26T14:53:30.049Z,1.52
2022-08-26T14:55:59.559Z,0.55
2022-08-26T14:58:33.827Z,0.90
2022-08-26T15:01:04.588Z,1.63
2022-08-26T15:03:33.956Z,0.95
2022-08-26T15:06:03.507Z,1.27
2022-08-26T15:08:36.550Z,0.70
2022-08-26T15:11:06.879Z,0.55
2022-08-26T15:13:36.256Z,0.68
2022-08-26T15:16:06.020Z,1.55
2022-08-26T15:18:35.582Z,1.13
2022-08-26T15:21:07.274Z,0.77
2022-08-26T15:23:38.442Z,1.67
2022-08-26T15:26:11.029Z,0.90
2022-08-26T15:28:43.779Z,0.80
2022-08-26T15:31:13.194Z,0.90
2022-08-26T15:33:42.720Z,0.80
2022-08-26T15:36:12.588Z,0.75
2022-08-26T15:38:46.810Z,0.82
2022-08-26T15:41:16.360Z,0.80
2022-08-26T15:43:45.829Z,0.70
2022-08-26T15:46:16.143Z,0.70
2022-08-26T15:48:45.667Z,0.88
2022-08-26T15:51:29.404Z,1.60
2022-08-26T15:53:59.562Z,1.10
2022-08-26T15:56:31.273Z,0.70
2022-08-26T15:59:01.404Z,0.80
2022-08-26T16:01:31.563Z,0.93
2022-08-26T16:04:01.622Z,0.60
2022-08-26T16:06:35.060Z,0.55
2022-08-26T16:09:04.623Z,1.00
2022-08-26T16:11:35.978Z,0.75
2022-08-26T16:14:07.405Z,0.90
2022-08-26T16:16:41.987Z,0.95
2022-08-26T16:19:11.965Z,0.50
2022-08-26T16:21:42.627Z,0.80
2022-08-26T16:24:12.714Z,2.03
2022-08-26T16:26:44.013Z,1.20
2022-08-26T16:29:18.231Z,1.45
2022-08-26T16:31:47.708Z,1.00
2022-08-26T16:34:17.417Z,1.20
2022-08-26T16:36:46.720Z,0.80
2022-08-26T16:39:16.157Z,0.70
2022-08-26T16:41:45.528Z,1.17
2022-08-26T16:44:14.895Z,1.00
2022-08-26T16:46:46.682Z,1.00
2022-08-26T16:49:16.208Z,0.68
2022-08-26T16:51:45.551Z,0.90
2022-08-26T16:54:15.308Z,0.95
2022-08-26T16:56:44.784Z,0.75
2022-08-26T16:59:14.301Z,1.00
2022-08-26T17:01:43.800Z,0.85
2022-08-26T17:04:13.122Z,1.30
2022-08-26T17:06:42.474Z,0.90
2022-08-26T17:09:11.880Z,0.70
2022-08-26T17:11:41.687Z,1.20
2022-08-26T17:14:14.153Z,1.20
2022-08-26T17:16:43.526Z,0.93
2022-08-26T17:19:12.931Z,0.63
2022-08-26T17:21:42.518Z,0.63
2022-08-26T17:24:11.906Z,1.10
2022-08-26T17:26:44.333Z,0.55
2022-08-26T17:29:22.942Z,0.57
2022-08-26T17:31:52.311Z,1.02
2022-08-26T17:34:22.340Z,1.23
2022-08-26T17:36:52.533Z,1.20
2022-08-26T17:39:21.889Z,1.20
2022-08-26T17:41:51.629Z,0.55
2022-08-26T17:44:20.947Z,0.82
2022-08-26T17:46:50.356Z,0.98
2022-08-26T17:49:19.731Z,0.85
2022-08-26T17:51:49.101Z,1.17
2022-08-26T17:54:18.565Z,0.98
2022-08-26T17:56:47.892Z,0.70
2022-08-26T17:59:17.452Z,0.52
2022-08-26T18:01:47.565Z,1.33
2022-08-26T18:04:17.621Z,0.70
2022-08-26T18:06:47.061Z,0.60
2022-08-26T18:09:16.416Z,0.95
2022-08-26T18:11:45.871Z,1.05
2022-08-26T18:14:15.232Z,1.95
2022-08-26T18:16:44.675Z,1.00
2022-08-26T18:19:16.904Z,0.60
2022-08-26T18:21:46.840Z,1.10
2022-08-26T18:24:16.204Z,0.90
2022-08-26T18:26:49.543Z,1.30
2022-08-26T18:29:20.607Z,0.80
2022-08-26T18:31:51.229Z,0.70
2022-08-26T18:34:21.125Z,0.98
2022-08-26T18:36:51.131Z,1.20
2022-08-26T18:39:23.610Z,1.08
2022-08-26T18:41:55.109Z,1.42
2022-08-26T18:44:25.493Z,1.33
2022-08-26T18:46:55.018Z,0.80
2022-08-26T18:49:24.664Z,0.88
2022-08-26T18:51:54.658Z,1.17
2022-08-26T18:54:24.151Z,0.98
2022-08-26T18:56:53.516Z,1.00
2022-08-26T18:59:28.389Z,1.08
2022-08-26T19:01:59.847Z,0.85
2022-08-26T19:04:29.713Z,1.00
2022-08-26T19:06:59.059Z,1.08
2022-08-26T19:09:28.946Z,1.10
2022-08-26T19:11:58.277Z,0.90
2022-08-26T19:14:27.836Z,0.65
2022-08-26T19:16:57.334Z,0.93
2022-08-26T19:19:26.886Z,0.80
2022-08-26T19:21:56.669Z,1.08
2022-08-26T19:24:28.163Z,1.10
2022-08-26T19:27:00.684Z,0.80
2022-08-26T19:32:02.172Z,1.77
2022-08-26T19:34:31.797Z,1.10
2022-08-26T19:37:01.384Z,1.05
2022-08-26T19:39:30.683Z,1.00
2022-08-26T19:42:00.444Z,0.88
2022-08-26T19:44:42.257Z,1.48
2022-08-26T19:47:15.569Z,0.98
2022-08-26T19:49:45.766Z,1.20
2022-08-26T19:52:15.165Z,0.95
2022-08-26T19:54:44.577Z,1.30
2022-08-26T19:57:14.560Z,1.52
2022-08-26T19:59:46.268Z,1.45
2022-08-26T20:02:16.283Z,1.38
2022-08-26T20:04:45.836Z,1.80
2022-08-26T20:07:18.945Z,1.20
2022-08-26T20:09:49.178Z,1.65
2022-08-26T20:12:18.957Z,1.27
2022-08-26T20:14:48.966Z,1.40
2022-08-26T20:17:18.755Z,1.02
2022-08-26T20:20:00.799Z,1.48
2022-08-26T20:22:30.425Z,1.10
2022-08-26T20:24:59.774Z,1.50
2022-08-26T20:27:34.725Z,1.75
2022-08-26T20:30:09.738Z,1.15
2022-08-26T20:32:40.031Z,1.43
2022-08-26T20:35:11.932Z,1.35
2022-08-26T20:37:42.609Z,2.10
2022-08-26T20:40:14.430Z,1.60
2022-08-26T20:42:43.848Z,1.23
2022-08-26T20:45:13.870Z,1.38
2022-08-26T20:47:43.915Z,1.73
2022-08-26T20:50:13.342Z,1.60
2022-08-26T20:52:42.687Z,1.48
2022-08-26T20:55:12.263Z,1.40
2022-08-26T20:57:43.395Z,1.60
2022-08-26T21:00:16.300Z,1.70
2022-08-26T21:02:46.999Z,1.40
2022-08-26T21:05:16.405Z,1.30
2022-08-26T21:07:45.779Z,1.30
2022-08-26T21:10:15.372Z,1.35
2022-08-26T21:12:45.357Z,1.42
2022-08-26T21:15:16.392Z,1.42
2022-08-26T21:17:46.074Z,1.65
2022-08-26T21:20:15.411Z,1.08
2022-08-26T21:22:44.825Z,1.40
2022-08-26T21:25:14.273Z,1.25
2022-08-26T21:27:43.639Z,1.63
2022-08-26T21:30:13.541Z,1.85
2022-08-26T21:32:42.932Z,1.52
2022-08-26T21:35:12.704Z,1.33
2022-08-26T21:37:42.123Z,1.60
2022-08-26T21:40:12.275Z,2.10
2022-08-26T21:42:41.735Z,1.35
2022-08-26T21:45:13.377Z,1.10
2022-08-26T21:47:42.880Z,1.27
2022-08-26T21:50:13.612Z,1.13
2022-08-26T21:52:42.933Z,1.20
2022-08-26T21:55:12.756Z,1.60
2022-08-26T21:57:42.144Z,1.50
2022-08-26T22:00:14.091Z,1.33
2022-08-26T22:02:43.636Z,1.60
2022-08-26T22:05:13.097Z,1.15
2022-08-26T22:07:42.487Z,1.42
2022-08-26T22:10:11.925Z,1.40
2022-08-26T22:12:44.951Z,1.27
2022-08-26T22:15:15.831Z,1.38
2022-08-26T22:17:45.620Z,1.27
2022-08-26T22:20:16.518Z,2.03
2022-08-26T22:22:46.242Z,1.50
2022-08-26T22:25:16.767Z,1.65
2022-08-26T22:27:46.204Z,1.67
2022-08-26T22:30:15.850Z,1.85
2022-08-26T22:32:45.885Z,1.50
2022-08-26T22:35:29.135Z,1.20
2022-08-26T22:37:59.476Z,1.35
2022-08-26T22:40:29.732Z,1.63
2022-08-26T22:43:00.318Z,1.70
2022-08-26T22:45:31.350Z,1.80
2022-08-26T22:48:05.057Z,1.50
2022-08-26T22:50:36.808Z,1.60
2022-08-26T22:53:06.195Z,1.65
2022-08-26T22:55:35.687Z,1.35
2022-08-26T22:58:05.088Z,1.33
2022-08-26T23:00:35.211Z,1.95
2022-08-26T23:03:05.803Z,1.25
2022-08-26T23:05:35.731Z,1.40
2022-08-26T23:08:05.356Z,1.30
2022-08-26T23:10:37.845Z,1.80
2022-08-26T23:13:08.527Z,1.48
2022-08-26T23:15:38.507Z,1.50
2022-08-26T23:18:08.096Z,1.30
2022-08-26T23:23:10.891Z,1.40
2022-08-26T23:25:41.596Z,1.42
2022-08-26T23:28:12.503Z,1.60
2022-08-26T23:30:41.905Z,1.55
2022-08-26T23:33:11.180Z,1.20
2022-08-26T23:35:38.553Z,1.42
2022-08-26T23:38:11.777Z,3.35
2022-08-26T23:40:44.883Z,1.13
2022-08-26T23:43:16.588Z,2.65
2022-08-26T23:45:46.035Z,1.70
2022-08-26T23:48:15.357Z,1.45
2022-08-26T23:51:01.255Z,1.27
2022-08-26T23:53:30.603Z,1.27
2022-08-26T23:55:59.900Z,1.60
2022-08-26T23:58:29.594Z,1.83
